sensor_id;sensor_type;location;lat;lon;timestamp;temperature;humidity
4518;DHT22;2271;49.464;11.070;2024-02-28T00:01:59;7.70;99.90
4518;DHT22;2271;49.464;11.070;2024-02-28T00:04:24;7.70;99.90
4518;DHT22;2271;49.464;11.070;2024-02-28T00:06:50;7.60;99.90
4518;DHT22;2271;49.464;11.070;2024-02-28T00:09:16;7.60;99.90
4518;DHT22;2271;49.464;11.070;2024-02-28T00:11:45;7.60;99.90
4518;DHT22;2271;49.464;11.070;2024-02-28T00:14:12;7.70;99.90
4518;DHT22;2271;49.464;11.070;2024-02-28T00:19:09;7.60;99.90
4518;DHT22;2271;49.464;11.070;2024-02-28T00:21:36;7.60;99.90
4518;DHT22;2271;49.464;11.070;2024-02-28T00:24:02;7.50;99.90
4518;DHT22;2271;49.464;11.070;2024-02-28T00:26:28;7.60;99.90
4518;DHT22;2271;49.464;11.070;2024-02-28T00:28:54;7.60;99.90
4518;DHT22;2271;49.464;11.070;2024-02-28T00:31:19;7.60;99.90
4518;DHT22;2271;49.464;11.070;2024-02-28T00:33:47;7.70;99.90
4518;DHT22;2271;49.464;11.070;2024-02-28T00:36:13;7.60;99.90
4518;DHT22;2271;49.464;11.070;2024-02-28T00:38:38;7.70;99.90
4518;DHT22;2271;49.464;11.070;2024-02-28T00:41:04;7.70;99.90
4518;DHT22;2271;49.464;11.070;2024-02-28T00:43:29;7.70;99.90
4518;DHT22;2271;49.464;11.070;2024-02-28T00:45:55;7.70;99.90
4518;DHT22;2271;49.464;11.070;2024-02-28T00:48:22;7.70;99.90
4518;DHT22;2271;49.464;11.070;2024-02-28T00:50:47;7.70;99.90
4518;DHT22;2271;49.464;11.070;2024-02-28T00:53:13;7.70;99.90
4518;DHT22;2271;49.464;11.070;2024-02-28T00:55:39;7.70;99.90
4518;DHT22;2271;49.464;11.070;2024-02-28T00:58:04;7.60;99.90
4518;DHT22;2271;49.464;11.070;2024-02-28T01:00:30;7.50;99.90
4518;DHT22;2271;49.464;11.070;2024-02-28T01:02:55;7.40;99.90
4518;DHT22;2271;49.464;11.070;2024-02-28T01:05:21;7.60;99.90
4518;DHT22;2271;49.464;11.070;2024-02-28T01:07:47;7.60;99.90
4518;DHT22;2271;49.464;11.070;2024-02-28T01:10:12;7.60;99.90
4518;DHT22;2271;49.464;11.070;2024-02-28T01:12:38;7.60;99.90
4518;DHT22;2271;49.464;11.070;2024-02-28T01:15:04;7.40;99.90
4518;DHT22;2271;49.464;11.070;2024-02-28T01:17:30;7.40;99.90
4518;DHT22;2271;49.464;11.070;2024-02-28T01:19:56;7.30;99.90
4518;DHT22;2271;49.464;11.070;2024-02-28T01:22:22;7.20;99.90
4518;DHT22;2271;49.464;11.070;2024-02-28T01:24:47;7.00;99.90
4518;DHT22;2271;49.464;11.070;2024-02-28T01:27:13;6.90;99.90
4518;DHT22;2271;49.464;11.070;2024-02-28T01:29:38;7.00;99.90
4518;DHT22;2271;49.464;11.070;2024-02-28T01:32:04;7.10;99.90
4518;DHT22;2271;49.464;11.070;2024-02-28T01:34:30;7.10;99.90
4518;DHT22;2271;49.464;11.070;2024-02-28T01:36:55;7.30;99.90
4518;DHT22;2271;49.464;11.070;2024-02-28T01:39:21;7.40;99.90
4518;DHT22;2271;49.464;11.070;2024-02-28T01:41:56;7.50;99.90
4518;DHT22;2271;49.464;11.070;2024-02-28T01:44:22;7.50;99.90
4518;DHT22;2271;49.464;11.070;2024-02-28T01:46:48;7.30;99.90
4518;DHT22;2271;49.464;11.070;2024-02-28T01:49:15;7.30;99.90
4518;DHT22;2271;49.464;11.070;2024-02-28T01:51:41;7.30;99.90
4518;DHT22;2271;49.464;11.070;2024-02-28T01:54:08;7.20;99.90
4518;DHT22;2271;49.464;11.070;2024-02-28T01:56:34;7.20;99.90
4518;DHT22;2271;49.464;11.070;2024-02-28T01:59:00;7.20;99.90
4518;DHT22;2271;49.464;11.070;2024-02-28T02:01:27;7.10;99.90
4518;DHT22;2271;49.464;11.070;2024-02-28T02:03:54;7.10;99.90
4518;DHT22;2271;49.464;11.070;2024-02-28T02:06:20;7.20;99.90
4518;DHT22;2271;49.464;11.070;2024-02-28T02:08:46;7.20;99.90
4518;DHT22;2271;49.464;11.070;2024-02-28T02:11:13;7.20;99.90
4518;DHT22;2271;49.464;11.070;2024-02-28T02:13:49;6.80;99.90
4518;DHT22;2271;49.464;11.070;2024-02-28T02:16:15;6.70;99.90
4518;DHT22;2271;49.464;11.070;2024-02-28T02:18:41;6.60;99.90
4518;DHT22;2271;49.464;11.070;2024-02-28T02:21:07;6.50;99.90
4518;DHT22;2271;49.464;11.070;2024-02-28T02:23:34;6.40;99.90
4518;DHT22;2271;49.464;11.070;2024-02-28T02:26:01;6.50;99.90
4518;DHT22;2271;49.464;11.070;2024-02-28T02:28:27;6.60;99.90
4518;DHT22;2271;49.464;11.070;2024-02-28T02:30:52;6.70;99.90
4518;DHT22;2271;49.464;11.070;2024-02-28T02:33:18;6.80;99.90
4518;DHT22;2271;49.464;11.070;2024-02-28T02:35:43;6.80;99.90
4518;DHT22;2271;49.464;11.070;2024-02-28T02:38:09;6.80;99.90
4518;DHT22;2271;49.464;11.070;2024-02-28T02:40:35;6.90;99.90
4518;DHT22;2271;49.464;11.070;2024-02-28T02:43:00;6.90;99.90
4518;DHT22;2271;49.464;11.070;2024-02-28T02:45:26;7.00;99.90
4518;DHT22;2271;49.464;11.070;2024-02-28T02:47:51;7.10;99.90
4518;DHT22;2271;49.464;11.070;2024-02-28T02:50:17;7.20;99.90
4518;DHT22;2271;49.464;11.070;2024-02-28T02:52:43;7.10;99.90
4518;DHT22;2271;49.464;11.070;2024-02-28T02:55:08;7.20;99.90
4518;DHT22;2271;49.464;11.070;2024-02-28T02:57:35;7.30;99.90
4518;DHT22;2271;49.464;11.070;2024-02-28T03:00:01;7.30;99.90
4518;DHT22;2271;49.464;11.070;2024-02-28T03:02:26;7.30;99.90
4518;DHT22;2271;49.464;11.070;2024-02-28T03:04:52;7.30;99.90
4518;DHT22;2271;49.464;11.070;2024-02-28T03:07:18;7.30;99.90
4518;DHT22;2271;49.464;11.070;2024-02-28T03:09:43;7.30;99.90
4518;DHT22;2271;49.464;11.070;2024-02-28T03:12:09;7.40;99.90
4518;DHT22;2271;49.464;11.070;2024-02-28T03:14:35;7.40;99.90
4518;DHT22;2271;49.464;11.070;2024-02-28T03:17:01;7.40;99.90
4518;DHT22;2271;49.464;11.070;2024-02-28T03:19:27;7.30;99.90
4518;DHT22;2271;49.464;11.070;2024-02-28T03:21:53;7.30;99.90
4518;DHT22;2271;49.464;11.070;2024-02-28T03:24:18;7.40;99.90
4518;DHT22;2271;49.464;11.070;2024-02-28T03:26:44;7.50;99.90
4518;DHT22;2271;49.464;11.070;2024-02-28T03:29:10;7.60;99.90
4518;DHT22;2271;49.464;11.070;2024-02-28T03:31:35;7.60;99.90
4518;DHT22;2271;49.464;11.070;2024-02-28T03:34:01;7.60;99.90
4518;DHT22;2271;49.464;11.070;2024-02-28T03:36:28;7.60;99.90
4518;DHT22;2271;49.464;11.070;2024-02-28T03:38:54;7.60;99.90
4518;DHT22;2271;49.464;11.070;2024-02-28T03:41:20;7.60;99.90
4518;DHT22;2271;49.464;11.070;2024-02-28T03:43:45;7.60;99.90
4518;DHT22;2271;49.464;11.070;2024-02-28T03:46:11;7.60;99.90
4518;DHT22;2271;49.464;11.070;2024-02-28T03:48:36;7.60;99.90
4518;DHT22;2271;49.464;11.070;2024-02-28T03:51:02;7.60;99.90
4518;DHT22;2271;49.464;11.070;2024-02-28T03:53:28;7.50;99.90
4518;DHT22;2271;49.464;11.070;2024-02-28T03:55:53;7.60;99.90
4518;DHT22;2271;49.464;11.070;2024-02-28T03:58:19;7.60;99.90
4518;DHT22;2271;49.464;11.070;2024-02-28T04:00:45;7.60;99.90
4518;DHT22;2271;49.464;11.070;2024-02-28T04:03:11;7.60;99.90
4518;DHT22;2271;49.464;11.070;2024-02-28T04:05:39;7.60;99.90
4518;DHT22;2271;49.464;11.070;2024-02-28T04:08:05;7.60;99.90
4518;DHT22;2271;49.464;11.070;2024-02-28T04:10:31;7.60;99.90
4518;DHT22;2271;49.464;11.070;2024-02-28T04:12:57;7.60;99.90
4518;DHT22;2271;49.464;11.070;2024-02-28T04:15:22;7.60;99.90
4518;DHT22;2271;49.464;11.070;2024-02-28T04:17:51;7.60;99.90
4518;DHT22;2271;49.464;11.070;2024-02-28T04:20:17;7.60;99.90
4518;DHT22;2271;49.464;11.070;2024-02-28T04:22:42;7.60;99.90
4518;DHT22;2271;49.464;11.070;2024-02-28T04:25:09;7.60;99.90
4518;DHT22;2271;49.464;11.070;2024-02-28T04:27:36;7.60;99.90
4518;DHT22;2271;49.464;11.070;2024-02-28T04:30:02;7.60;99.90
4518;DHT22;2271;49.464;11.070;2024-02-28T04:32:27;7.50;99.90
4518;DHT22;2271;49.464;11.070;2024-02-28T04:34:53;7.50;99.90
4518;DHT22;2271;49.464;11.070;2024-02-28T04:37:19;7.60;99.90
4518;DHT22;2271;49.464;11.070;2024-02-28T04:39:44;7.60;99.90
4518;DHT22;2271;49.464;11.070;2024-02-28T04:42:10;7.60;99.90
4518;DHT22;2271;49.464;11.070;2024-02-28T04:44:35;7.60;99.90
4518;DHT22;2271;49.464;11.070;2024-02-28T04:47:01;8.00;99.90
4518;DHT22;2271;49.464;11.070;2024-02-28T04:49:28;8.10;99.90
4518;DHT22;2271;49.464;11.070;2024-02-28T04:51:53;8.00;99.90
4518;DHT22;2271;49.464;11.070;2024-02-28T04:54:19;7.90;99.90
4518;DHT22;2271;49.464;11.070;2024-02-28T04:56:45;7.80;99.90
4518;DHT22;2271;49.464;11.070;2024-02-28T04:59:12;7.70;99.90
4518;DHT22;2271;49.464;11.070;2024-02-28T05:01:38;7.70;99.90
4518;DHT22;2271;49.464;11.070;2024-02-28T05:04:11;7.60;99.90
4518;DHT22;2271;49.464;11.070;2024-02-28T05:06:37;7.60;99.90
4518;DHT22;2271;49.464;11.070;2024-02-28T05:09:02;7.60;99.90
4518;DHT22;2271;49.464;11.070;2024-02-28T05:11:28;7.60;99.90
4518;DHT22;2271;49.464;11.070;2024-02-28T05:13:54;7.60;99.90
4518;DHT22;2271;49.464;11.070;2024-02-28T05:16:20;7.60;99.90
4518;DHT22;2271;49.464;11.070;2024-02-28T05:18:45;7.60;99.90
4518;DHT22;2271;49.464;11.070;2024-02-28T05:21:11;7.60;99.90
4518;DHT22;2271;49.464;11.070;2024-02-28T05:23:37;7.60;99.90
4518;DHT22;2271;49.464;11.070;2024-02-28T05:26:03;7.60;99.90
4518;DHT22;2271;49.464;11.070;2024-02-28T05:28:32;7.60;99.90
4518;DHT22;2271;49.464;11.070;2024-02-28T05:33:45;7.50;99.90
4518;DHT22;2271;49.464;11.070;2024-02-28T05:36:11;7.30;99.90
4518;DHT22;2271;49.464;11.070;2024-02-28T05:38:36;7.30;99.90
4518;DHT22;2271;49.464;11.070;2024-02-28T05:41:02;7.40;99.90
4518;DHT22;2271;49.464;11.070;2024-02-28T05:43:28;7.40;99.90
4518;DHT22;2271;49.464;11.070;2024-02-28T05:45:53;7.40;99.90
4518;DHT22;2271;49.464;11.070;2024-02-28T05:48:19;7.40;99.90
4518;DHT22;2271;49.464;11.070;2024-02-28T05:50:45;7.30;99.90
4518;DHT22;2271;49.464;11.070;2024-02-28T05:53:11;7.30;99.90
4518;DHT22;2271;49.464;11.070;2024-02-28T05:55:37;7.30;99.90
4518;DHT22;2271;49.464;11.070;2024-02-28T05:58:02;7.30;99.90
4518;DHT22;2271;49.464;11.070;2024-02-28T06:00:29;7.40;99.90
4518;DHT22;2271;49.464;11.070;2024-02-28T06:02:54;7.40;99.90
4518;DHT22;2271;49.464;11.070;2024-02-28T06:05:20;7.20;99.90
4518;DHT22;2271;49.464;11.070;2024-02-28T06:07:45;7.30;99.90
4518;DHT22;2271;49.464;11.070;2024-02-28T06:10:11;7.20;99.90
4518;DHT22;2271;49.464;11.070;2024-02-28T06:12:37;7.20;99.90
4518;DHT22;2271;49.464;11.070;2024-02-28T06:15:04;7.30;99.90
4518;DHT22;2271;49.464;11.070;2024-02-28T06:17:30;7.30;99.90
4518;DHT22;2271;49.464;11.070;2024-02-28T06:19:55;7.30;99.90
4518;DHT22;2271;49.464;11.070;2024-02-28T06:22:21;7.30;99.90
4518;DHT22;2271;49.464;11.070;2024-02-28T06:24:47;7.30;99.90
4518;DHT22;2271;49.464;11.070;2024-02-28T06:27:12;7.30;99.90
4518;DHT22;2271;49.464;11.070;2024-02-28T06:29:41;7.30;99.90
4518;DHT22;2271;49.464;11.070;2024-02-28T06:32:07;7.30;99.90
4518;DHT22;2271;49.464;11.070;2024-02-28T06:34:33;7.40;99.90
4518;DHT22;2271;49.464;11.070;2024-02-28T06:36:58;7.40;99.90
4518;DHT22;2271;49.464;11.070;2024-02-28T06:39:24;7.40;99.90
4518;DHT22;2271;49.464;11.070;2024-02-28T06:41:49;7.40;99.90
4518;DHT22;2271;49.464;11.070;2024-02-28T06:44:18;7.40;99.90
4518;DHT22;2271;49.464;11.070;2024-02-28T06:46:44;7.40;99.90
4518;DHT22;2271;49.464;11.070;2024-02-28T06:49:10;7.50;99.90
4518;DHT22;2271;49.464;11.070;2024-02-28T06:51:35;7.50;99.90
4518;DHT22;2271;49.464;11.070;2024-02-28T06:54:02;7.50;99.90
4518;DHT22;2271;49.464;11.070;2024-02-28T06:56:27;7.50;99.90
4518;DHT22;2271;49.464;11.070;2024-02-28T06:58:53;7.50;99.90
4518;DHT22;2271;49.464;11.070;2024-02-28T07:01:18;7.60;99.90
4518;DHT22;2271;49.464;11.070;2024-02-28T07:03:44;9.40;99.90
4518;DHT22;2271;49.464;11.070;2024-02-28T07:06:11;10.80;99.90
4518;DHT22;2271;49.464;11.070;2024-02-28T07:08:37;11.80;99.90
4518;DHT22;2271;49.464;11.070;2024-02-28T07:11:03;12.40;99.90
4518;DHT22;2271;49.464;11.070;2024-02-28T07:13:29;11.30;99.90
4518;DHT22;2271;49.464;11.070;2024-02-28T07:15:54;10.40;99.90
4518;DHT22;2271;49.464;11.070;2024-02-28T07:18:23;9.70;99.90
4518;DHT22;2271;49.464;11.070;2024-02-28T07:20:51;9.20;99.90
4518;DHT22;2271;49.464;11.070;2024-02-28T07:23:17;8.80;99.90
4518;DHT22;2271;49.464;11.070;2024-02-28T07:25:43;8.60;99.90
4518;DHT22;2271;49.464;11.070;2024-02-28T07:28:09;8.40;99.90
4518;DHT22;2271;49.464;11.070;2024-02-28T07:33:10;8.20;99.90
4518;DHT22;2271;49.464;11.070;2024-02-28T07:35:46;8.10;99.90
4518;DHT22;2271;49.464;11.070;2024-02-28T07:38:11;8.00;99.90
4518;DHT22;2271;49.464;11.070;2024-02-28T07:40:39;7.90;99.90
4518;DHT22;2271;49.464;11.070;2024-02-28T07:43:05;7.90;99.90
4518;DHT22;2271;49.464;11.070;2024-02-28T07:45:31;7.90;99.90
4518;DHT22;2271;49.464;11.070;2024-02-28T07:47:56;7.80;99.90
4518;DHT22;2271;49.464;11.070;2024-02-28T07:50:22;7.70;99.90
4518;DHT22;2271;49.464;11.070;2024-02-28T07:52:48;7.80;99.90
4518;DHT22;2271;49.464;11.070;2024-02-28T07:55:13;7.80;99.90
4518;DHT22;2271;49.464;11.070;2024-02-28T07:57:39;7.90;99.90
4518;DHT22;2271;49.464;11.070;2024-02-28T08:00:05;7.90;99.90
4518;DHT22;2271;49.464;11.070;2024-02-28T08:02:31;7.80;99.90
4518;DHT22;2271;49.464;11.070;2024-02-28T08:04:56;7.70;99.90
4518;DHT22;2271;49.464;11.070;2024-02-28T08:07:22;7.60;99.90
4518;DHT22;2271;49.464;11.070;2024-02-28T08:09:48;7.40;99.90
4518;DHT22;2271;49.464;11.070;2024-02-28T08:12:13;7.40;99.90
4518;DHT22;2271;49.464;11.070;2024-02-28T08:14:39;7.50;99.90
4518;DHT22;2271;49.464;11.070;2024-02-28T08:17:05;7.50;99.90
4518;DHT22;2271;49.464;11.070;2024-02-28T08:19:30;7.60;99.90
4518;DHT22;2271;49.464;11.070;2024-02-28T08:21:56;7.60;99.90
4518;DHT22;2271;49.464;11.070;2024-02-28T08:24:21;7.70;99.90
4518;DHT22;2271;49.464;11.070;2024-02-28T08:26:47;7.70;99.90
4518;DHT22;2271;49.464;11.070;2024-02-28T08:29:13;7.80;99.90
4518;DHT22;2271;49.464;11.070;2024-02-28T08:31:43;7.80;99.90
4518;DHT22;2271;49.464;11.070;2024-02-28T08:34:09;7.80;99.90
4518;DHT22;2271;49.464;11.070;2024-02-28T08:36:35;7.80;99.90
4518;DHT22;2271;49.464;11.070;2024-02-28T08:39:01;7.80;99.90
4518;DHT22;2271;49.464;11.070;2024-02-28T08:41:27;7.70;99.90
4518;DHT22;2271;49.464;11.070;2024-02-28T08:43:52;7.70;99.90
4518;DHT22;2271;49.464;11.070;2024-02-28T08:46:18;7.80;99.90
4518;DHT22;2271;49.464;11.070;2024-02-28T08:48:44;8.70;99.90
4518;DHT22;2271;49.464;11.070;2024-02-28T08:51:09;9.50;99.90
4518;DHT22;2271;49.464;11.070;2024-02-28T08:53:35;10.00;99.90
4518;DHT22;2271;49.464;11.070;2024-02-28T08:56:00;10.30;99.90
4518;DHT22;2271;49.464;11.070;2024-02-28T08:58:26;10.00;99.90
4518;DHT22;2271;49.464;11.070;2024-02-28T09:00:51;9.60;99.90
4518;DHT22;2271;49.464;11.070;2024-02-28T09:03:17;9.10;99.90
4518;DHT22;2271;49.464;11.070;2024-02-28T09:05:43;8.80;99.90
4518;DHT22;2271;49.464;11.070;2024-02-28T09:08:08;8.60;99.90
4518;DHT22;2271;49.464;11.070;2024-02-28T09:10:34;8.40;99.90
4518;DHT22;2271;49.464;11.070;2024-02-28T09:13:00;8.30;99.90
4518;DHT22;2271;49.464;11.070;2024-02-28T09:15:26;8.30;99.90
4518;DHT22;2271;49.464;11.070;2024-02-28T09:17:51;8.20;99.90
4518;DHT22;2271;49.464;11.070;2024-02-28T09:20:17;8.10;99.90
4518;DHT22;2271;49.464;11.070;2024-02-28T09:22:43;8.10;99.90
4518;DHT22;2271;49.464;11.070;2024-02-28T09:25:09;8.10;99.90
4518;DHT22;2271;49.464;11.070;2024-02-28T09:27:37;8.00;99.90
4518;DHT22;2271;49.464;11.070;2024-02-28T09:30:03;8.00;99.90
4518;DHT22;2271;49.464;11.070;2024-02-28T09:32:29;8.00;99.90
4518;DHT22;2271;49.464;11.070;2024-02-28T09:34:55;8.00;99.90
4518;DHT22;2271;49.464;11.070;2024-02-28T09:37:20;8.00;99.90
4518;DHT22;2271;49.464;11.070;2024-02-28T09:39:47;7.90;99.90
4518;DHT22;2271;49.464;11.070;2024-02-28T09:42:14;8.00;99.90
4518;DHT22;2271;49.464;11.070;2024-02-28T09:44:40;8.00;99.90
4518;DHT22;2271;49.464;11.070;2024-02-28T09:47:08;7.90;99.90
4518;DHT22;2271;49.464;11.070;2024-02-28T09:49:34;7.90;99.90
4518;DHT22;2271;49.464;11.070;2024-02-28T09:52:03;7.90;99.90
4518;DHT22;2271;49.464;11.070;2024-02-28T09:54:29;8.00;99.90
4518;DHT22;2271;49.464;11.070;2024-02-28T09:56:55;8.00;99.90
4518;DHT22;2271;49.464;11.070;2024-02-28T09:59:23;8.00;99.90
4518;DHT22;2271;49.464;11.070;2024-02-28T10:01:56;7.90;99.90
4518;DHT22;2271;49.464;11.070;2024-02-28T10:04:26;8.00;99.90
4518;DHT22;2271;49.464;11.070;2024-02-28T10:06:53;8.00;99.90
4518;DHT22;2271;49.464;11.070;2024-02-28T10:09:19;8.10;99.90
4518;DHT22;2271;49.464;11.070;2024-02-28T10:11:45;8.10;99.90
4518;DHT22;2271;49.464;11.070;2024-02-28T10:14:14;8.20;99.90
4518;DHT22;2271;49.464;11.070;2024-02-28T10:16:42;8.20;99.90
4518;DHT22;2271;49.464;11.070;2024-02-28T10:19:08;8.10;99.90
4518;DHT22;2271;49.464;11.070;2024-02-28T10:21:33;8.00;99.90
4518;DHT22;2271;49.464;11.070;2024-02-28T10:23:59;8.10;99.90
4518;DHT22;2271;49.464;11.070;2024-02-28T10:26:25;8.20;99.90
4518;DHT22;2271;49.464;11.070;2024-02-28T10:28:51;8.20;99.90
4518;DHT22;2271;49.464;11.070;2024-02-28T10:31:17;8.30;99.90
4518;DHT22;2271;49.464;11.070;2024-02-28T10:33:42;8.40;99.90
4518;DHT22;2271;49.464;11.070;2024-02-28T10:36:09;8.40;99.90
4518;DHT22;2271;49.464;11.070;2024-02-28T10:38:34;8.40;99.90
4518;DHT22;2271;49.464;11.070;2024-02-28T10:41:02;8.30;99.90
4518;DHT22;2271;49.464;11.070;2024-02-28T10:43:31;8.30;99.90
4518;DHT22;2271;49.464;11.070;2024-02-28T10:45:57;8.30;99.90
4518;DHT22;2271;49.464;11.070;2024-02-28T10:48:27;8.40;99.90
4518;DHT22;2271;49.464;11.070;2024-02-28T10:50:53;8.50;99.90
4518;DHT22;2271;49.464;11.070;2024-02-28T10:53:36;8.60;99.90
4518;DHT22;2271;49.464;11.070;2024-02-28T10:56:04;8.60;99.90
4518;DHT22;2271;49.464;11.070;2024-02-28T10:58:35;8.60;99.90
4518;DHT22;2271;49.464;11.070;2024-02-28T11:01:04;8.50;99.90
4518;DHT22;2271;49.464;11.070;2024-02-28T11:03:30;8.50;99.90
4518;DHT22;2271;49.464;11.070;2024-02-28T11:05:56;8.50;99.90
4518;DHT22;2271;49.464;11.070;2024-02-28T11:08:24;8.60;99.90
4518;DHT22;2271;49.464;11.070;2024-02-28T11:11:02;8.50;99.90
4518;DHT22;2271;49.464;11.070;2024-02-28T11:13:31;8.50;99.90
4518;DHT22;2271;49.464;11.070;2024-02-28T11:16:07;8.60;99.90
4518;DHT22;2271;49.464;11.070;2024-02-28T11:18:33;8.60;99.90
4518;DHT22;2271;49.464;11.070;2024-02-28T11:20:59;8.60;99.90
4518;DHT22;2271;49.464;11.070;2024-02-28T11:23:24;8.60;99.90
4518;DHT22;2271;49.464;11.070;2024-02-28T11:25:51;8.60;99.90
4518;DHT22;2271;49.464;11.070;2024-02-28T11:28:17;8.60;99.90
4518;DHT22;2271;49.464;11.070;2024-02-28T11:30:42;8.70;99.90
4518;DHT22;2271;49.464;11.070;2024-02-28T11:33:08;8.70;99.90
4518;DHT22;2271;49.464;11.070;2024-02-28T11:35:35;8.70;99.90
4518;DHT22;2271;49.464;11.070;2024-02-28T11:38:01;8.80;99.90
4518;DHT22;2271;49.464;11.070;2024-02-28T11:40:27;8.80;99.90
4518;DHT22;2271;49.464;11.070;2024-02-28T11:42:56;8.80;99.90
4518;DHT22;2271;49.464;11.070;2024-02-28T11:45:22;8.80;99.90
4518;DHT22;2271;49.464;11.070;2024-02-28T11:47:47;8.80;99.90
4518;DHT22;2271;49.464;11.070;2024-02-28T11:50:13;8.80;99.90
4518;DHT22;2271;49.464;11.070;2024-02-28T11:52:44;8.80;99.90
4518;DHT22;2271;49.464;11.070;2024-02-28T11:55:10;8.80;99.90
4518;DHT22;2271;49.464;11.070;2024-02-28T11:57:37;8.80;99.90
4518;DHT22;2271;49.464;11.070;2024-02-28T12:00:07;8.80;99.90
4518;DHT22;2271;49.464;11.070;2024-02-28T12:02:33;8.80;99.90
4518;DHT22;2271;49.464;11.070;2024-02-28T12:05:03;8.80;99.90
4518;DHT22;2271;49.464;11.070;2024-02-28T12:07:32;8.80;99.90
4518;DHT22;2271;49.464;11.070;2024-02-28T12:09:58;8.80;99.90
4518;DHT22;2271;49.464;11.070;2024-02-28T12:12:24;8.80;99.90
4518;DHT22;2271;49.464;11.070;2024-02-28T12:14:50;8.80;99.90
4518;DHT22;2271;49.464;11.070;2024-02-28T12:17:16;8.80;99.90
4518;DHT22;2271;49.464;11.070;2024-02-28T12:19:42;8.90;99.90
4518;DHT22;2271;49.464;11.070;2024-02-28T12:22:08;9.00;99.90
4518;DHT22;2271;49.464;11.070;2024-02-28T12:24:34;9.00;99.90
4518;DHT22;2271;49.464;11.070;2024-02-28T12:27:00;9.00;99.90
4518;DHT22;2271;49.464;11.070;2024-02-28T12:29:25;9.00;99.90
4518;DHT22;2271;49.464;11.070;2024-02-28T12:31:51;9.00;99.90
4518;DHT22;2271;49.464;11.070;2024-02-28T12:34:17;9.00;99.90
4518;DHT22;2271;49.464;11.070;2024-02-28T12:36:42;8.90;99.90
4518;DHT22;2271;49.464;11.070;2024-02-28T12:39:08;8.90;99.90
4518;DHT22;2271;49.464;11.070;2024-02-28T12:41:38;9.00;99.90
4518;DHT22;2271;49.464;11.070;2024-02-28T12:44:05;9.00;99.90
4518;DHT22;2271;49.464;11.070;2024-02-28T12:46:31;9.00;99.90
4518;DHT22;2271;49.464;11.070;2024-02-28T12:48:57;9.00;99.90
4518;DHT22;2271;49.464;11.070;2024-02-28T12:51:42;8.90;99.90
4518;DHT22;2271;49.464;11.070;2024-02-28T12:54:09;8.90;99.90
4518;DHT22;2271;49.464;11.070;2024-02-28T12:56:36;9.00;99.90
4518;DHT22;2271;49.464;11.070;2024-02-28T12:59:02;9.00;99.90
4518;DHT22;2271;49.464;11.070;2024-02-28T13:01:28;9.00;99.90
4518;DHT22;2271;49.464;11.070;2024-02-28T13:03:56;9.00;99.90
4518;DHT22;2271;49.464;11.070;2024-02-28T13:06:22;9.00;99.90
4518;DHT22;2271;49.464;11.070;2024-02-28T13:08:48;9.00;99.90
4518;DHT22;2271;49.464;11.070;2024-02-28T13:11:18;9.10;99.90
4518;DHT22;2271;49.464;11.070;2024-02-28T13:13:45;9.00;99.90
4518;DHT22;2271;49.464;11.070;2024-02-28T13:16:10;9.00;99.90
4518;DHT22;2271;49.464;11.070;2024-02-28T13:18:36;8.90;99.90
4518;DHT22;2271;49.464;11.070;2024-02-28T13:21:02;9.00;99.90
4518;DHT22;2271;49.464;11.070;2024-02-28T13:23:28;9.00;99.90
4518;DHT22;2271;49.464;11.070;2024-02-28T13:25:56;9.00;99.90
4518;DHT22;2271;49.464;11.070;2024-02-28T13:28:22;9.00;99.90
4518;DHT22;2271;49.464;11.070;2024-02-28T13:31:01;9.00;99.90
4518;DHT22;2271;49.464;11.070;2024-02-28T13:33:27;9.10;99.90
4518;DHT22;2271;49.464;11.070;2024-02-28T13:35:53;9.10;99.90
4518;DHT22;2271;49.464;11.070;2024-02-28T13:38:20;9.10;99.90
4518;DHT22;2271;49.464;11.070;2024-02-28T13:40:49;9.10;99.90
4518;DHT22;2271;49.464;11.070;2024-02-28T13:43:15;9.10;99.90
4518;DHT22;2271;49.464;11.070;2024-02-28T13:45:50;9.10;99.90
4518;DHT22;2271;49.464;11.070;2024-02-28T13:48:22;9.10;99.90
4518;DHT22;2271;49.464;11.070;2024-02-28T13:50:50;9.10;99.90
4518;DHT22;2271;49.464;11.070;2024-02-28T13:53:15;9.10;99.90
4518;DHT22;2271;49.464;11.070;2024-02-28T13:55:45;9.10;99.90
4518;DHT22;2271;49.464;11.070;2024-02-28T13:58:14;9.20;99.90
4518;DHT22;2271;49.464;11.070;2024-02-28T14:00:44;9.20;99.90
4518;DHT22;2271;49.464;11.070;2024-02-28T14:03:13;9.20;99.90
4518;DHT22;2271;49.464;11.070;2024-02-28T14:05:39;9.10;99.90
4518;DHT22;2271;49.464;11.070;2024-02-28T14:08:05;9.00;99.90
4518;DHT22;2271;49.464;11.070;2024-02-28T14:10:34;9.10;99.90
4518;DHT22;2271;49.464;11.070;2024-02-28T14:13:00;9.10;99.90
4518;DHT22;2271;49.464;11.070;2024-02-28T14:15:26;9.00;99.90
4518;DHT22;2271;49.464;11.070;2024-02-28T14:17:53;9.00;99.90
4518;DHT22;2271;49.464;11.070;2024-02-28T14:20:19;9.00;99.90
4518;DHT22;2271;49.464;11.070;2024-02-28T14:22:45;9.00;99.90
4518;DHT22;2271;49.464;11.070;2024-02-28T14:25:12;9.00;99.90
4518;DHT22;2271;49.464;11.070;2024-02-28T14:27:38;9.10;99.90
4518;DHT22;2271;49.464;11.070;2024-02-28T14:30:06;9.10;99.90
4518;DHT22;2271;49.464;11.070;2024-02-28T14:32:35;9.20;99.90
4518;DHT22;2271;49.464;11.070;2024-02-28T14:35:05;9.20;99.90
4518;DHT22;2271;49.464;11.070;2024-02-28T14:37:35;9.00;99.90
4518;DHT22;2271;49.464;11.070;2024-02-28T14:40:02;9.00;99.90
4518;DHT22;2271;49.464;11.070;2024-02-28T14:42:30;8.90;99.90
4518;DHT22;2271;49.464;11.070;2024-02-28T14:44:55;8.90;99.90
4518;DHT22;2271;49.464;11.070;2024-02-28T14:47:21;9.00;99.90
4518;DHT22;2271;49.464;11.070;2024-02-28T14:49:47;9.00;99.90
4518;DHT22;2271;49.464;11.070;2024-02-28T14:52:12;9.10;99.90
4518;DHT22;2271;49.464;11.070;2024-02-28T14:54:39;9.10;99.90
4518;DHT22;2271;49.464;11.070;2024-02-28T14:57:05;9.30;99.90
4518;DHT22;2271;49.464;11.070;2024-02-28T14:59:31;9.50;99.90
4518;DHT22;2271;49.464;11.070;2024-02-28T15:01:58;9.60;99.90
4518;DHT22;2271;49.464;11.070;2024-02-28T15:04:23;9.70;99.90
4518;DHT22;2271;49.464;11.070;2024-02-28T15:06:50;9.70;99.90
4518;DHT22;2271;49.464;11.070;2024-02-28T15:09:15;9.70;99.90
4518;DHT22;2271;49.464;11.070;2024-02-28T15:11:41;9.70;99.90
4518;DHT22;2271;49.464;11.070;2024-02-28T15:14:07;9.60;99.90
4518;DHT22;2271;49.464;11.070;2024-02-28T15:16:33;9.50;99.90
4518;DHT22;2271;49.464;11.070;2024-02-28T15:18:59;9.50;99.90
4518;DHT22;2271;49.464;11.070;2024-02-28T15:21:24;9.50;99.90
4518;DHT22;2271;49.464;11.070;2024-02-28T15:23:50;9.50;99.90
4518;DHT22;2271;49.464;11.070;2024-02-28T15:26:16;9.50;99.90
4518;DHT22;2271;49.464;11.070;2024-02-28T15:28:42;9.70;99.90
4518;DHT22;2271;49.464;11.070;2024-02-28T15:31:07;9.80;99.90
4518;DHT22;2271;49.464;11.070;2024-02-28T15:33:33;9.70;99.90
4518;DHT22;2271;49.464;11.070;2024-02-28T15:35:59;9.70;99.90
4518;DHT22;2271;49.464;11.070;2024-02-28T15:38:26;9.60;99.90
4518;DHT22;2271;49.464;11.070;2024-02-28T15:40:51;9.60;99.90
4518;DHT22;2271;49.464;11.070;2024-02-28T15:43:17;9.60;99.90
4518;DHT22;2271;49.464;11.070;2024-02-28T15:45:43;9.50;99.90
4518;DHT22;2271;49.464;11.070;2024-02-28T15:48:08;9.50;99.90
4518;DHT22;2271;49.464;11.070;2024-02-28T15:50:34;9.50;99.90
4518;DHT22;2271;49.464;11.070;2024-02-28T15:53:01;9.40;99.90
4518;DHT22;2271;49.464;11.070;2024-02-28T15:55:28;9.30;99.90
4518;DHT22;2271;49.464;11.070;2024-02-28T15:57:53;9.30;99.90
4518;DHT22;2271;49.464;11.070;2024-02-28T16:00:21;9.30;99.90
4518;DHT22;2271;49.464;11.070;2024-02-28T16:02:46;9.10;99.90
4518;DHT22;2271;49.464;11.070;2024-02-28T16:05:13;9.10;99.90